< < Back
Terminal Aerodrome Forecast


Current Version              Previous Versions:   1  2  3  4  5  6  7  8  9  

Terminal Aerodrome Forecast

140
FTUS42 KCHS 261120
TAFCHS
TAF
KCHS 261120Z 2612/2712 06004KT P6SM SKC
     FM261800 12010KT P6SM SCT050
     FM270100 VRB03KT P6SM SKC=

Latest METAR

020
SAUS80 KWBC 270100 CCA
MTRCHS
METAR KCHS 270056Z 10006KT 10SM CLR 28/21 A3004 RMK AO2 SLP172
T02780211


USA.gov is the U.S. government's official web portal to all federal, state and local government web resources and services.